Terminal Aerodrome Forecast
Issued by NWS

Home | Current Version | Previous Version | Text Only | Print | Product List | Glossary On
Versions: 1 2 3 4 5 6 7 8 9 10 11 12 13
000
FTUS44 KMOB 171314 AAA
TAFBFM
TAF AMD
KBFM 171314Z 1713/1812 13004KT P6SM SCT025 BKN040 OVC090
     FM171500 14010KT P6SM VCSH OVC025
     FM171800 17012KT 5SM -SHRA BKN015 OVC040
     FM180300 18003KT 2SM -RA BR OVC007=

USA.gov is the U.S. government's official web portal to all federal, state and local government web resources and services.